sensor_id;sensor_type;location;lat;lon;timestamp;P1;durP1;ratioP1;P2;durP2;ratioP2
21663;SDS011;10993;52.510;13.456;2023-06-14T00:01:13;4.10;;;1.70;;
21663;SDS011;10993;52.510;13.456;2023-06-14T00:06:15;3.90;;;2.10;;
21663;SDS011;10993;52.510;13.456;2023-06-14T00:11:15;3.05;;;1.67;;
21663;SDS011;10993;52.510;13.456;2023-06-14T00:16:16;5.47;;;2.10;;
21663;SDS011;10993;52.510;13.456;2023-06-14T00:21:18;5.75;;;2.15;;
21663;SDS011;10993;52.510;13.456;2023-06-14T00:26:19;4.78;;;2.40;;
21663;SDS011;10993;52.510;13.456;2023-06-14T00:31:21;3.70;;;1.77;;
21663;SDS011;10993;52.510;13.456;2023-06-14T00:36:22;4.25;;;1.70;;
21663;SDS011;10993;52.510;13.456;2023-06-14T00:41:23;3.90;;;2.05;;
21663;SDS011;10993;52.510;13.456;2023-06-14T00:46:23;4.63;;;2.17;;
21663;SDS011;10993;52.510;13.456;2023-06-14T00:51:25;4.90;;;2.42;;
21663;SDS011;10993;52.510;13.456;2023-06-14T00:56:26;4.80;;;2.35;;
21663;SDS011;10993;52.510;13.456;2023-06-14T01:01:27;4.03;;;2.30;;
21663;SDS011;10993;52.510;13.456;2023-06-14T01:06:30;3.97;;;2.60;;
21663;SDS011;10993;52.510;13.456;2023-06-14T01:11:44;6.07;;;3.00;;
21663;SDS011;10993;52.510;13.456;2023-06-14T01:16:50;6.18;;;3.20;;
21663;SDS011;10993;52.510;13.456;2023-06-14T01:21:54;3.45;;;2.38;;
21663;SDS011;10993;52.510;13.456;2023-06-14T01:26:56;5.20;;;2.60;;
21663;SDS011;10993;52.510;13.456;2023-06-14T01:31:57;6.53;;;2.80;;
21663;SDS011;10993;52.510;13.456;2023-06-14T01:36:57;5.60;;;2.80;;
21663;SDS011;10993;52.510;13.456;2023-06-14T01:42:02;4.10;;;2.55;;
21663;SDS011;10993;52.510;13.456;2023-06-14T01:47:05;6.25;;;2.90;;
21663;SDS011;10993;52.510;13.456;2023-06-14T01:52:06;4.78;;;3.00;;
21663;SDS011;10993;52.510;13.456;2023-06-14T01:57:11;6.57;;;3.10;;
21663;SDS011;10993;52.510;13.456;2023-06-14T02:02:11;5.78;;;3.17;;
21663;SDS011;10993;52.510;13.456;2023-06-14T02:07:12;6.22;;;3.20;;
21663;SDS011;10993;52.510;13.456;2023-06-14T02:12:13;6.32;;;3.65;;
21663;SDS011;10993;52.510;13.456;2023-06-14T02:17:14;5.82;;;3.20;;
21663;SDS011;10993;52.510;13.456;2023-06-14T02:22:15;5.45;;;3.35;;
21663;SDS011;10993;52.510;13.456;2023-06-14T02:27:16;9.70;;;3.50;;
21663;SDS011;10993;52.510;13.456;2023-06-14T02:32:17;8.80;;;3.38;;
21663;SDS011;10993;52.510;13.456;2023-06-14T02:37:17;4.88;;;3.25;;
21663;SDS011;10993;52.510;13.456;2023-06-14T02:42:19;7.78;;;3.30;;
21663;SDS011;10993;52.510;13.456;2023-06-14T02:47:20;7.28;;;3.60;;
21663;SDS011;10993;52.510;13.456;2023-06-14T02:52:20;5.30;;;3.55;;
21663;SDS011;10993;52.510;13.456;2023-06-14T02:57:23;6.90;;;3.83;;
21663;SDS011;10993;52.510;13.456;2023-06-14T03:02:23;7.13;;;3.65;;
21663;SDS011;10993;52.510;13.456;2023-06-14T03:07:23;6.72;;;3.80;;
21663;SDS011;10993;52.510;13.456;2023-06-14T03:12:26;6.13;;;3.92;;
21663;SDS011;10993;52.510;13.456;2023-06-14T03:17:27;8.50;;;4.05;;
21663;SDS011;10993;52.510;13.456;2023-06-14T03:22:29;9.38;;;4.40;;
21663;SDS011;10993;52.510;13.456;2023-06-14T03:27:32;5.90;;;4.00;;
21663;SDS011;10993;52.510;13.456;2023-06-14T03:32:32;8.77;;;4.22;;
21663;SDS011;10993;52.510;13.456;2023-06-14T03:37:33;6.97;;;4.03;;
21663;SDS011;10993;52.510;13.456;2023-06-14T03:42:34;7.10;;;3.95;;
21663;SDS011;10993;52.510;13.456;2023-06-14T03:47:35;6.75;;;4.03;;
21663;SDS011;10993;52.510;13.456;2023-06-14T03:52:35;7.18;;;3.90;;
21663;SDS011;10993;52.510;13.456;2023-06-14T03:57:38;4.18;;;3.05;;
21663;SDS011;10993;52.510;13.456;2023-06-14T04:02:38;8.13;;;3.40;;
21663;SDS011;10993;52.510;13.456;2023-06-14T04:07:38;6.57;;;2.95;;
21663;SDS011;10993;52.510;13.456;2023-06-14T04:12:46;4.97;;;3.63;;
21663;SDS011;10993;52.510;13.456;2023-06-14T04:17:46;5.47;;;3.47;;
21663;SDS011;10993;52.510;13.456;2023-06-14T04:22:47;6.32;;;3.33;;
21663;SDS011;10993;52.510;13.456;2023-06-14T04:27:48;6.07;;;3.63;;
21663;SDS011;10993;52.510;13.456;2023-06-14T04:32:51;6.22;;;3.40;;
21663;SDS011;10993;52.510;13.456;2023-06-14T04:37:53;6.25;;;3.25;;
21663;SDS011;10993;52.510;13.456;2023-06-14T04:42:55;8.27;;;3.17;;
21663;SDS011;10993;52.510;13.456;2023-06-14T04:47:55;7.53;;;2.90;;
21663;SDS011;10993;52.510;13.456;2023-06-14T04:52:57;10.70;;;3.70;;
21663;SDS011;10993;52.510;13.456;2023-06-14T04:58:01;8.32;;;3.25;;
21663;SDS011;10993;52.510;13.456;2023-06-14T05:03:02;8.25;;;3.58;;
21663;SDS011;10993;52.510;13.456;2023-06-14T05:08:03;6.95;;;3.17;;
21663;SDS011;10993;52.510;13.456;2023-06-14T05:13:04;10.35;;;3.80;;
21663;SDS011;10993;52.510;13.456;2023-06-14T05:18:05;8.10;;;3.83;;
21663;SDS011;10993;52.510;13.456;2023-06-14T05:23:08;11.10;;;4.65;;
21663;SDS011;10993;52.510;13.456;2023-06-14T05:28:16;8.85;;;4.25;;
21663;SDS011;10993;52.510;13.456;2023-06-14T05:33:16;7.28;;;4.35;;
21663;SDS011;10993;52.510;13.456;2023-06-14T05:38:16;9.05;;;4.68;;
21663;SDS011;10993;52.510;13.456;2023-06-14T05:43:18;7.13;;;4.17;;
21663;SDS011;10993;52.510;13.456;2023-06-14T05:48:18;8.48;;;4.38;;
21663;SDS011;10993;52.510;13.456;2023-06-14T05:53:19;5.63;;;4.10;;
21663;SDS011;10993;52.510;13.456;2023-06-14T05:58:21;6.23;;;4.00;;
21663;SDS011;10993;52.510;13.456;2023-06-14T06:03:22;5.30;;;4.05;;
21663;SDS011;10993;52.510;13.456;2023-06-14T06:08:22;7.90;;;4.28;;
21663;SDS011;10993;52.510;13.456;2023-06-14T06:13:24;8.33;;;3.77;;
21663;SDS011;10993;52.510;13.456;2023-06-14T06:18:24;8.55;;;3.72;;
21663;SDS011;10993;52.510;13.456;2023-06-14T06:23:25;6.60;;;3.92;;
21663;SDS011;10993;52.510;13.456;2023-06-14T06:28:27;6.18;;;3.72;;
21663;SDS011;10993;52.510;13.456;2023-06-14T06:33:27;6.07;;;3.67;;
21663;SDS011;10993;52.510;13.456;2023-06-14T06:38:27;7.33;;;3.57;;
21663;SDS011;10993;52.510;13.456;2023-06-14T06:43:29;7.20;;;3.90;;
21663;SDS011;10993;52.510;13.456;2023-06-14T06:48:29;6.72;;;3.95;;
21663;SDS011;10993;52.510;13.456;2023-06-14T06:53:30;6.35;;;3.75;;
21663;SDS011;10993;52.510;13.456;2023-06-14T06:58:32;7.43;;;3.88;;
21663;SDS011;10993;52.510;13.456;2023-06-14T07:03:32;5.18;;;3.50;;
21663;SDS011;10993;52.510;13.456;2023-06-14T07:08:33;6.50;;;3.23;;
21663;SDS011;10993;52.510;13.456;2023-06-14T07:13:34;7.77;;;3.70;;
21663;SDS011;10993;52.510;13.456;2023-06-14T07:18:35;8.07;;;4.30;;
21663;SDS011;10993;52.510;13.456;2023-06-14T07:23:37;8.38;;;3.70;;
21663;SDS011;10993;52.510;13.456;2023-06-14T07:28:39;4.60;;;3.42;;
21663;SDS011;10993;52.510;13.456;2023-06-14T07:33:40;6.32;;;2.90;;
21663;SDS011;10993;52.510;13.456;2023-06-14T07:38:40;6.15;;;2.78;;
21663;SDS011;10993;52.510;13.456;2023-06-14T07:43:42;6.63;;;3.13;;
21663;SDS011;10993;52.510;13.456;2023-06-14T07:48:42;5.35;;;3.25;;
21663;SDS011;10993;52.510;13.456;2023-06-14T07:53:43;6.95;;;3.00;;
21663;SDS011;10993;52.510;13.456;2023-06-14T07:58:44;5.25;;;2.70;;
21663;SDS011;10993;52.510;13.456;2023-06-14T08:03:45;5.38;;;2.75;;
21663;SDS011;10993;52.510;13.456;2023-06-14T08:08:45;5.60;;;2.97;;
21663;SDS011;10993;52.510;13.456;2023-06-14T08:13:47;5.60;;;3.05;;
21663;SDS011;10993;52.510;13.456;2023-06-14T08:18:47;6.10;;;2.80;;
21663;SDS011;10993;52.510;13.456;2023-06-14T08:23:48;9.00;;;2.92;;
21663;SDS011;10993;52.510;13.456;2023-06-14T08:28:49;4.57;;;2.50;;
21663;SDS011;10993;52.510;13.456;2023-06-14T08:33:50;6.25;;;2.60;;
21663;SDS011;10993;52.510;13.456;2023-06-14T08:38:50;3.97;;;2.40;;
21663;SDS011;10993;52.510;13.456;2023-06-14T08:43:52;5.63;;;2.70;;
21663;SDS011;10993;52.510;13.456;2023-06-14T08:48:52;4.35;;;2.30;;
21663;SDS011;10993;52.510;13.456;2023-06-14T08:53:56;4.65;;;2.25;;
21663;SDS011;10993;52.510;13.456;2023-06-14T08:58:58;4.00;;;1.98;;
21663;SDS011;10993;52.510;13.456;2023-06-14T09:04:03;6.63;;;2.20;;
21663;SDS011;10993;52.510;13.456;2023-06-14T09:09:05;4.30;;;2.33;;
21663;SDS011;10993;52.510;13.456;2023-06-14T09:14:08;4.20;;;2.00;;
21663;SDS011;10993;52.510;13.456;2023-06-14T09:19:10;5.13;;;1.90;;
21663;SDS011;10993;52.510;13.456;2023-06-14T09:24:14;5.00;;;2.03;;
21663;SDS011;10993;52.510;13.456;2023-06-14T09:29:17;4.82;;;2.17;;
21663;SDS011;10993;52.510;13.456;2023-06-14T09:34:18;4.05;;;2.05;;
21663;SDS011;10993;52.510;13.456;2023-06-14T09:39:20;4.78;;;2.15;;
21663;SDS011;10993;52.510;13.456;2023-06-14T09:44:22;4.03;;;2.20;;
21663;SDS011;10993;52.510;13.456;2023-06-14T09:49:25;4.47;;;2.40;;
21663;SDS011;10993;52.510;13.456;2023-06-14T09:54:25;7.95;;;2.45;;
21663;SDS011;10993;52.510;13.456;2023-06-14T09:59:29;6.78;;;2.95;;
21663;SDS011;10993;52.510;13.456;2023-06-14T10:04:32;4.13;;;2.28;;
21663;SDS011;10993;52.510;13.456;2023-06-14T10:09:34;3.88;;;2.30;;
21663;SDS011;10993;52.510;13.456;2023-06-14T10:14:36;4.30;;;2.45;;
21663;SDS011;10993;52.510;13.456;2023-06-14T10:19:37;4.80;;;2.70;;
21663;SDS011;10993;52.510;13.456;2023-06-14T10:24:44;5.05;;;2.63;;
21663;SDS011;10993;52.510;13.456;2023-06-14T10:35:07;8.40;;;2.90;;
21663;SDS011;10993;52.510;13.456;2023-06-14T10:40:09;5.65;;;2.85;;
21663;SDS011;10993;52.510;13.456;2023-06-14T10:45:31;4.25;;;2.28;;
21663;SDS011;10993;52.510;13.456;2023-06-14T10:50:31;5.13;;;2.50;;
21663;SDS011;10993;52.510;13.456;2023-06-14T10:55:34;4.93;;;2.10;;
21663;SDS011;10993;52.510;13.456;2023-06-14T11:00:37;7.57;;;2.88;;
21663;SDS011;10993;52.510;13.456;2023-06-14T11:05:41;10.82;;;3.00;;
21663;SDS011;10993;52.510;13.456;2023-06-14T11:10:48;6.07;;;2.63;;
21663;SDS011;10993;52.510;13.456;2023-06-14T11:15:51;5.57;;;2.25;;
21663;SDS011;10993;52.510;13.456;2023-06-14T11:20:56;6.50;;;2.30;;
21663;SDS011;10993;52.510;13.456;2023-06-14T11:25:57;4.00;;;2.22;;
21663;SDS011;10993;52.510;13.456;2023-06-14T11:31:01;4.33;;;1.90;;
21663;SDS011;10993;52.510;13.456;2023-06-14T11:36:02;5.00;;;2.50;;
21663;SDS011;10993;52.510;13.456;2023-06-14T11:41:03;6.93;;;2.65;;
21663;SDS011;10993;52.510;13.456;2023-06-14T11:46:11;5.07;;;2.13;;
21663;SDS011;10993;52.510;13.456;2023-06-14T11:51:13;4.07;;;2.10;;
21663;SDS011;10993;52.510;13.456;2023-06-14T11:56:14;6.82;;;2.22;;
21663;SDS011;10993;52.510;13.456;2023-06-14T12:01:17;7.18;;;2.60;;
21663;SDS011;10993;52.510;13.456;2023-06-14T12:06:25;5.70;;;2.17;;
21663;SDS011;10993;52.510;13.456;2023-06-14T12:11:31;3.88;;;2.30;;
21663;SDS011;10993;52.510;13.456;2023-06-14T12:16:37;4.63;;;2.70;;
21663;SDS011;10993;52.510;13.456;2023-06-14T12:21:38;3.95;;;2.17;;
21663;SDS011;10993;52.510;13.456;2023-06-14T12:26:42;4.40;;;2.15;;
21663;SDS011;10993;52.510;13.456;2023-06-14T12:31:44;3.60;;;1.92;;
21663;SDS011;10993;52.510;13.456;2023-06-14T12:36:44;4.65;;;2.50;;
21663;SDS011;10993;52.510;13.456;2023-06-14T12:41:46;4.13;;;2.10;;
21663;SDS011;10993;52.510;13.456;2023-06-14T12:46:48;3.53;;;1.80;;
21663;SDS011;10993;52.510;13.456;2023-06-14T12:51:51;4.10;;;1.92;;
21663;SDS011;10993;52.510;13.456;2023-06-14T12:56:51;3.27;;;1.70;;
21663;SDS011;10993;52.510;13.456;2023-06-14T13:01:53;6.38;;;2.17;;
21663;SDS011;10993;52.510;13.456;2023-06-14T13:06:54;4.38;;;1.92;;
21663;SDS011;10993;52.510;13.456;2023-06-14T13:11:54;5.80;;;2.20;;
21663;SDS011;10993;52.510;13.456;2023-06-14T13:16:56;3.95;;;1.90;;
21663;SDS011;10993;52.510;13.456;2023-06-14T13:21:56;4.90;;;2.55;;
21663;SDS011;10993;52.510;13.456;2023-06-14T13:26:56;4.93;;;1.90;;
21663;SDS011;10993;52.510;13.456;2023-06-14T13:31:58;5.43;;;2.38;;
21663;SDS011;10993;52.510;13.456;2023-06-14T13:36:59;3.67;;;1.92;;
21663;SDS011;10993;52.510;13.456;2023-06-14T13:41:59;4.13;;;2.20;;
21663;SDS011;10993;52.510;13.456;2023-06-14T13:47:01;4.20;;;2.20;;
21663;SDS011;10993;52.510;13.456;2023-06-14T13:52:01;6.72;;;2.00;;
21663;SDS011;10993;52.510;13.456;2023-06-14T13:57:02;6.30;;;2.03;;
21663;SDS011;10993;52.510;13.456;2023-06-14T14:02:05;4.97;;;2.08;;
21663;SDS011;10993;52.510;13.456;2023-06-14T14:07:06;3.85;;;1.90;;
21663;SDS011;10993;52.510;13.456;2023-06-14T14:12:07;4.22;;;2.42;;
21663;SDS011;10993;52.510;13.456;2023-06-14T14:17:08;4.38;;;2.05;;
21663;SDS011;10993;52.510;13.456;2023-06-14T14:22:09;3.88;;;1.98;;
21663;SDS011;10993;52.510;13.456;2023-06-14T14:27:09;4.07;;;2.30;;
21663;SDS011;10993;52.510;13.456;2023-06-14T14:32:11;6.05;;;2.15;;
21663;SDS011;10993;52.510;13.456;2023-06-14T14:37:14;5.72;;;2.08;;
21663;SDS011;10993;52.510;13.456;2023-06-14T14:42:15;5.13;;;1.85;;
21663;SDS011;10993;52.510;13.456;2023-06-14T14:47:16;4.90;;;2.03;;
21663;SDS011;10993;52.510;13.456;2023-06-14T14:52:17;3.65;;;2.05;;
21663;SDS011;10993;52.510;13.456;2023-06-14T14:57:17;5.30;;;1.88;;
21663;SDS011;10993;52.510;13.456;2023-06-14T15:02:19;4.67;;;1.70;;
21663;SDS011;10993;52.510;13.456;2023-06-14T15:07:19;3.85;;;2.28;;
21663;SDS011;10993;52.510;13.456;2023-06-14T15:12:20;13.47;;;2.57;;
21663;SDS011;10993;52.510;13.456;2023-06-14T15:17:24;5.10;;;2.30;;
21663;SDS011;10993;52.510;13.456;2023-06-14T15:22:24;5.75;;;2.10;;
21663;SDS011;10993;52.510;13.456;2023-06-14T15:27:25;8.25;;;2.45;;
21663;SDS011;10993;52.510;13.456;2023-06-14T15:32:27;3.97;;;1.90;;
21663;SDS011;10993;52.510;13.456;2023-06-14T15:37:27;3.72;;;2.03;;
21663;SDS011;10993;52.510;13.456;2023-06-14T15:42:27;9.25;;;2.85;;
21663;SDS011;10993;52.510;13.456;2023-06-14T15:47:29;3.00;;;1.90;;
21663;SDS011;10993;52.510;13.456;2023-06-14T15:52:29;9.65;;;2.38;;
21663;SDS011;10993;52.510;13.456;2023-06-14T15:57:30;4.53;;;2.17;;
21663;SDS011;10993;52.510;13.456;2023-06-14T16:02:32;6.03;;;2.85;;
21663;SDS011;10993;52.510;13.456;2023-06-14T16:07:32;8.52;;;2.70;;
21663;SDS011;10993;52.510;13.456;2023-06-14T16:12:32;7.25;;;2.20;;
21663;SDS011;10993;52.510;13.456;2023-06-14T16:17:34;5.73;;;2.60;;
21663;SDS011;10993;52.510;13.456;2023-06-14T16:22:34;4.47;;;2.50;;
21663;SDS011;10993;52.510;13.456;2023-06-14T16:27:35;4.63;;;2.45;;
21663;SDS011;10993;52.510;13.456;2023-06-14T16:32:37;6.82;;;3.28;;
21663;SDS011;10993;52.510;13.456;2023-06-14T16:37:37;6.93;;;2.80;;
21663;SDS011;10993;52.510;13.456;2023-06-14T16:42:37;5.87;;;1.97;;
21663;SDS011;10993;52.510;13.456;2023-06-14T16:47:39;4.97;;;2.97;;
21663;SDS011;10993;52.510;13.456;2023-06-14T16:52:39;6.50;;;2.10;;
21663;SDS011;10993;52.510;13.456;2023-06-14T16:57:40;5.90;;;3.10;;
21663;SDS011;10993;52.510;13.456;2023-06-14T17:02:42;6.20;;;3.60;;
21663;SDS011;10993;52.510;13.456;2023-06-14T17:07:43;6.30;;;2.80;;
21663;SDS011;10993;52.510;13.456;2023-06-14T17:12:43;5.27;;;2.70;;
21663;SDS011;10993;52.510;13.456;2023-06-14T17:17:45;6.22;;;2.80;;
21663;SDS011;10993;52.510;13.456;2023-06-14T17:22:45;6.20;;;3.40;;
21663;SDS011;10993;52.510;13.456;2023-06-14T17:27:45;5.20;;;2.47;;
21663;SDS011;10993;52.510;13.456;2023-06-14T17:32:47;7.93;;;3.33;;
21663;SDS011;10993;52.510;13.456;2023-06-14T17:37:47;8.00;;;4.05;;
21663;SDS011;10993;52.510;13.456;2023-06-14T17:42:48;6.27;;;3.30;;
21663;SDS011;10993;52.510;13.456;2023-06-14T17:47:49;5.07;;;2.58;;
21663;SDS011;10993;52.510;13.456;2023-06-14T17:52:50;5.22;;;3.10;;
21663;SDS011;10993;52.510;13.456;2023-06-14T17:57:50;4.03;;;2.50;;
21663;SDS011;10993;52.510;13.456;2023-06-14T18:02:52;6.05;;;2.88;;
21663;SDS011;10993;52.510;13.456;2023-06-14T18:07:52;5.65;;;3.00;;
21663;SDS011;10993;52.510;13.456;2023-06-14T18:12:53;7.93;;;3.25;;
21663;SDS011;10993;52.510;13.456;2023-06-14T18:17:55;8.23;;;3.40;;
21663;SDS011;10993;52.510;13.456;2023-06-14T18:22:55;7.80;;;3.40;;
21663;SDS011;10993;52.510;13.456;2023-06-14T18:27:56;7.07;;;3.33;;
21663;SDS011;10993;52.510;13.456;2023-06-14T18:32:57;4.85;;;2.45;;
21663;SDS011;10993;52.510;13.456;2023-06-14T18:37:58;6.50;;;3.13;;
21663;SDS011;10993;52.510;13.456;2023-06-14T18:42:58;8.07;;;4.07;;
21663;SDS011;10993;52.510;13.456;2023-06-14T18:48:00;9.40;;;2.85;;
21663;SDS011;10993;52.510;13.456;2023-06-14T18:53:00;7.20;;;3.72;;
21663;SDS011;10993;52.510;13.456;2023-06-14T18:58:01;6.32;;;3.42;;
21663;SDS011;10993;52.510;13.456;2023-06-14T19:03:02;7.93;;;3.27;;
21663;SDS011;10993;52.510;13.456;2023-06-14T19:08:03;7.68;;;3.90;;
21663;SDS011;10993;52.510;13.456;2023-06-14T19:13:04;9.80;;;2.72;;
21663;SDS011;10993;52.510;13.456;2023-06-14T19:18:08;7.68;;;2.90;;
21663;SDS011;10993;52.510;13.456;2023-06-14T19:23:10;7.32;;;3.00;;
21663;SDS011;10993;52.510;13.456;2023-06-14T19:28:10;8.43;;;3.55;;
21663;SDS011;10993;52.510;13.456;2023-06-14T19:33:12;5.17;;;3.17;;
21663;SDS011;10993;52.510;13.456;2023-06-14T19:38:13;6.60;;;2.58;;
21663;SDS011;10993;52.510;13.456;2023-06-14T19:43:13;6.15;;;3.00;;
21663;SDS011;10993;52.510;13.456;2023-06-14T19:48:15;4.87;;;2.77;;
21663;SDS011;10993;52.510;13.456;2023-06-14T19:53:15;5.45;;;2.33;;
21663;SDS011;10993;52.510;13.456;2023-06-14T19:58:18;5.18;;;2.38;;
21663;SDS011;10993;52.510;13.456;2023-06-14T20:03:20;7.10;;;4.07;;
21663;SDS011;10993;52.510;13.456;2023-06-14T20:08:20;6.93;;;2.60;;
21663;SDS011;10993;52.510;13.456;2023-06-14T20:13:23;5.47;;;2.78;;
21663;SDS011;10993;52.510;13.456;2023-06-14T20:18:25;7.38;;;3.10;;
21663;SDS011;10993;52.510;13.456;2023-06-14T20:23:26;5.05;;;2.47;;
21663;SDS011;10993;52.510;13.456;2023-06-14T20:28:26;7.15;;;3.33;;
21663;SDS011;10993;52.510;13.456;2023-06-14T20:33:28;6.63;;;3.70;;
21663;SDS011;10993;52.510;13.456;2023-06-14T20:38:29;9.57;;;3.45;;
21663;SDS011;10993;52.510;13.456;2023-06-14T20:43:30;6.82;;;3.13;;
21663;SDS011;10993;52.510;13.456;2023-06-14T20:48:31;4.60;;;2.60;;
21663;SDS011;10993;52.510;13.456;2023-06-14T20:53:32;7.00;;;3.92;;
21663;SDS011;10993;52.510;13.456;2023-06-14T20:58:32;4.80;;;2.85;;
21663;SDS011;10993;52.510;13.456;2023-06-14T21:03:34;5.10;;;2.47;;
21663;SDS011;10993;52.510;13.456;2023-06-14T21:08:34;4.53;;;2.83;;
21663;SDS011;10993;52.510;13.456;2023-06-14T21:13:36;7.63;;;3.15;;
21663;SDS011;10993;52.510;13.456;2023-06-14T21:18:38;5.32;;;2.85;;
21663;SDS011;10993;52.510;13.456;2023-06-14T21:23:38;4.45;;;2.40;;
21663;SDS011;10993;52.510;13.456;2023-06-14T21:28:39;8.07;;;2.40;;
21663;SDS011;10993;52.510;13.456;2023-06-14T21:33:40;12.50;;;4.90;;
21663;SDS011;10993;52.510;13.456;2023-06-14T21:38:41;5.60;;;3.20;;
21663;SDS011;10993;52.510;13.456;2023-06-14T21:43:41;5.40;;;3.13;;
21663;SDS011;10993;52.510;13.456;2023-06-14T21:48:43;5.63;;;3.10;;
21663;SDS011;10993;52.510;13.456;2023-06-14T21:53:43;5.20;;;3.03;;
21663;SDS011;10993;52.510;13.456;2023-06-14T21:58:47;7.55;;;3.20;;
21663;SDS011;10993;52.510;13.456;2023-06-14T22:03:51;4.05;;;2.53;;
21663;SDS011;10993;52.510;13.456;2023-06-14T22:08:52;5.47;;;2.90;;
21663;SDS011;10993;52.510;13.456;2023-06-14T22:13:52;5.05;;;2.97;;
21663;SDS011;10993;52.510;13.456;2023-06-14T22:18:54;5.77;;;3.20;;
21663;SDS011;10993;52.510;13.456;2023-06-14T22:23:56;6.38;;;2.67;;
21663;SDS011;10993;52.510;13.456;2023-06-14T22:28:57;4.97;;;3.00;;
21663;SDS011;10993;52.510;13.456;2023-06-14T22:34:05;4.53;;;2.70;;
21663;SDS011;10993;52.510;13.456;2023-06-14T22:39:07;4.50;;;2.58;;
21663;SDS011;10993;52.510;13.456;2023-06-14T22:44:08;4.32;;;2.55;;
21663;SDS011;10993;52.510;13.456;2023-06-14T22:49:10;5.43;;;3.13;;
21663;SDS011;10993;52.510;13.456;2023-06-14T22:54:11;5.63;;;2.80;;
21663;SDS011;10993;52.510;13.456;2023-06-14T22:59:11;7.33;;;2.73;;
21663;SDS011;10993;52.510;13.456;2023-06-14T23:04:14;6.85;;;2.58;;
21663;SDS011;10993;52.510;13.456;2023-06-14T23:09:14;6.15;;;2.78;;
21663;SDS011;10993;52.510;13.456;2023-06-14T23:14:14;5.25;;;2.60;;
21663;SDS011;10993;52.510;13.456;2023-06-14T23:19:16;7.67;;;2.63;;
21663;SDS011;10993;52.510;13.456;2023-06-14T23:24:17;4.63;;;2.58;;
21663;SDS011;10993;52.510;13.456;2023-06-14T23:29:19;4.95;;;2.80;;
21663;SDS011;10993;52.510;13.456;2023-06-14T23:34:21;6.53;;;2.70;;
21663;SDS011;10993;52.510;13.456;2023-06-14T23:39:22;5.90;;;3.10;;
21663;SDS011;10993;52.510;13.456;2023-06-14T23:44:23;6.70;;;2.63;;
21663;SDS011;10993;52.510;13.456;2023-06-14T23:49:25;6.45;;;3.28;;
21663;SDS011;10993;52.510;13.456;2023-06-14T23:54:26;7.10;;;3.15;;
21663;SDS011;10993;52.510;13.456;2023-06-14T23:59:26;6.95;;;2.55;;
